Holbrook, Nebraska
Current Conditions -  °F | °C
As of 10:53 AM on Tuesday 21 Oct 2014 (Local Time) from KMCK Reporting Station
Scattered Clouds Scattered Clouds  
Wind Chill: 65°   Ceiling: Unl
Heat Index: 65°   Visibility: 10mi
Dew Point: 51°   Wind: 12mph
Humidity: 61%   Direction: 160°SSE
Pressure: 30.06"   Gusts: 18mph
Location:  40.3°N, 100.01°W
Report Text: KMCK 211553Z AUTO 16010G16KT 10SM SCT024 18/11 A3006 RMK AO2 SLP169 T01830106
Loading
Personal Weather Stations






























Interactive Weather Map New forecast layout! Learn more

10-Day Weather Forecast

Advertisements
Track Severe Weather on mobile